Time;durP1;ratioP1;P1;durP2;ratioP2;P2;SDS_P1;SDS_P2;PMS_P1;PMS_P2;Temp;Humidity;BMP_temperature;BMP_pressure;BME280_temperature;BME280_humidity;BME280_pressure;Samples;Min_cycle;Max_cycle;Signal;HPM_P1;HPM_P2
2022/08/31 00:05:05;;;;;;;3.47;2.00;;;19.50;94.00;;;;;;5051664;28;20419;-67
2022/08/31 00:07:33;;;;;;;5.40;2.40;;;19.50;93.90;;;;;;5053420;28;20400;-67
2022/08/31 00:09:59;;;;;;;3.97;2.83;;;19.50;93.10;;;;;;5055412;28;20463;-67
2022/08/31 00:12:25;;;;;;;4.60;2.73;;;19.60;93.00;;;;;;5054973;28;20771;-67
2022/08/31 00:14:51;;;;;;;5.33;2.63;;;19.60;91.90;;;;;;5055402;28;20400;-67
2022/08/31 00:17:17;;;;;;;7.57;3.17;;;19.60;92.00;;;;;;5055063;28;20177;-67
2022/08/31 00:19:42;;;;;;;3.87;2.40;;;19.60;92.30;;;;;;5055025;28;20181;-67
2022/08/31 00:22:08;;;;;;;7.57;2.37;;;19.60;92.40;;;;;;5054538;28;20594;-67
2022/08/31 00:24:34;;;;;;;4.47;1.90;;;19.70;91.10;;;;;;5055091;28;20185;-67
2022/08/31 00:26:59;;;;;;;6.37;2.50;;;19.70;90.40;;;;;;5054988;28;20174;-67
2022/08/31 00:29:25;;;;;;;4.40;2.43;;;19.80;90.20;;;;;;5054981;28;20573;-67
2022/08/31 00:31:51;;;;;;;6.10;2.83;;;19.80;91.90;;;;;;5053140;28;20611;-67
2022/08/31 00:34:17;;;;;;;5.27;3.47;;;19.60;94.50;;;;;;5054523;28;20618;-67
2022/08/31 00:36:46;;;;;;;8.40;3.60;;;19.20;96.60;;;;;;5054981;28;20414;-66
2022/08/31 00:39:12;;;;;;;5.40;3.23;;;18.80;97.90;;;;;;5054825;28;20170;-66
2022/08/31 00:41:37;;;;;;;15.43;4.17;;;18.40;99.30;;;;;;5054080;28;20426;-66
2022/08/31 00:44:06;;;;;;;4.73;2.77;;;18.10;99.90;;;;;;5054674;28;20396;-66
2022/08/31 00:46:36;;;;;;;6.80;3.43;;;17.80;99.90;;;;;;5054534;28;20515;-66
2022/08/31 00:49:30;;;;;;;5.00;3.30;;;17.70;99.90;;;;;;5054228;28;20780;-66
2022/08/31 00:51:58;;;;;;;7.07;2.67;;;17.60;99.90;;;;;;5053127;28;20474;-66
2022/08/31 00:54:32;;;;;;;6.87;3.60;;;17.50;99.90;;;;;;5053204;28;20796;-66
2022/08/31 00:56:58;;;;;;;5.17;3.30;;;17.50;99.90;;;;;;5054408;28;20760;-66
2022/08/31 00:59:24;;;;;;;5.33;3.00;;;17.40;99.90;;;;;;5054545;28;20401;-66
2022/08/31 01:01:50;;;;;;;7.13;3.70;;;17.30;99.90;;;;;;5053856;28;20412;-66
2022/08/31 01:04:16;;;;;;;11.07;4.07;;;17.20;99.90;;;;;;5054193;28;20802;-66
2022/08/31 01:06:42;;;;;;;9.73;3.40;;;17.00;99.90;;;;;;5054394;28;20654;-66
2022/08/31 01:09:10;;;;;;;8.57;4.20;;;16.90;99.90;;;;;;5054282;28;20479;-66
2022/08/31 01:11:38;;;;;;;10.93;4.20;;;16.90;99.90;;;;;;5053419;28;20412;-66
2022/08/31 01:14:07;;;;;;;11.30;4.00;;;16.80;99.90;;;;;;5054037;28;20765;-67
2022/08/31 01:16:37;;;;;;;6.40;3.80;;;16.80;99.90;;;;;;5054164;28;20408;-66
2022/08/31 01:19:10;;;;;;;7.50;4.30;;;16.70;99.90;;;;;;5053427;28;20873;-67
2022/08/31 01:21:51;;;;;;;12.80;4.40;;;16.60;99.90;;;;;;5053545;28;20408;-67
2022/08/31 01:24:18;;;;;;;9.90;4.17;;;16.60;99.90;;;;;;5053944;28;20397;-66
2022/08/31 01:26:44;;;;;;;9.20;4.73;;;16.50;99.90;;;;;;5054242;28;20408;-67
2022/08/31 01:29:10;;;;;;;8.63;4.40;;;16.40;99.90;;;;;;5053776;28;20400;-67
2022/08/31 01:31:43;;;;;;;11.33;5.20;;;16.40;99.90;;;;;;5053630;28;20511;-67
2022/08/31 01:34:09;;;;;;;7.60;4.03;;;16.40;99.90;;;;;;5053130;28;20264;-67
2022/08/31 01:36:37;;;;;;;9.20;4.80;;;16.40;99.90;;;;;;5054079;28;20458;-67
2022/08/31 01:39:04;;;;;;;16.00;5.47;;;16.40;99.90;;;;;;5054080;28;20404;-67
2022/08/31 01:41:30;;;;;;;7.27;3.67;;;16.40;99.90;;;;;;5053404;28;20927;-67
2022/08/31 01:43:56;;;;;;;9.83;5.20;;;16.30;99.90;;;;;;5053645;28;20409;-66
2022/08/31 01:46:22;;;;;;;8.63;4.40;;;16.40;99.90;;;;;;5053584;28;20854;-67
2022/08/31 01:48:48;;;;;;;14.47;6.90;;;16.40;99.90;;;;;;5053495;28;20419;-66
2022/08/31 01:51:16;;;;;;;7.50;5.07;;;16.30;99.90;;;;;;5052863;28;20459;-65
2022/08/31 01:53:44;;;;;;;19.20;6.77;;;16.30;99.90;;;;;;5053411;28;20504;-64
2022/08/31 01:56:17;;;;;;;17.03;6.60;;;16.30;99.90;;;;;;5053539;28;20408;-64
2022/08/31 01:58:43;;;;;;;14.63;5.23;;;16.20;99.90;;;;;;5053245;28;20879;-66
2022/08/31 02:01:09;;;;;;;12.40;7.27;;;16.20;99.90;;;;;;5052920;28;20416;-67
2022/08/31 02:03:35;;;;;;;15.20;7.13;;;16.20;99.90;;;;;;5053362;28;20223;-66
2022/08/31 02:06:12;;;;;;;12.93;6.27;;;16.10;99.90;;;;;;5053118;28;20419;-66
2022/08/31 02:08:38;;;;;;;17.73;6.40;;;16.10;99.90;;;;;;5053169;28;20778;-67
2022/08/31 02:11:05;;;;;;;10.23;5.10;;;16.00;99.90;;;;;;5052723;28;20456;-67
2022/08/31 02:13:32;;;;;;;11.20;5.90;;;16.00;99.90;;;;;;5052856;28;20435;-67
2022/08/31 02:15:57;;;;;;;10.53;5.90;;;15.90;99.90;;;;;;5053168;28;20451;-67
2022/08/31 02:18:24;;;;;;;14.80;5.60;;;15.90;99.90;;;;;;5053020;28;20832;-67
2022/08/31 02:20:49;;;;;;;9.37;5.87;;;16.00;99.90;;;;;;5052721;28;20180;-67
2022/08/31 02:23:15;;;;;;;11.70;6.23;;;16.00;99.90;;;;;;5052313;28;20420;-67
2022/08/31 02:25:41;;;;;;;11.97;6.07;;;16.00;99.90;;;;;;5052939;28;20192;-67
2022/08/31 02:28:06;;;;;;;12.60;6.20;;;16.10;99.90;;;;;;5052742;28;20188;-67
2022/08/31 02:30:32;;;;;;;11.83;5.57;;;16.10;99.90;;;;;;5051896;28;20209;-67
2022/08/31 02:32:57;;;;;;;13.77;6.13;;;16.10;99.90;;;;;;5051559;28;20523;-67
2022/08/31 02:35:23;;;;;;;21.90;6.87;;;16.10;99.90;;;;;;5052690;28;20261;-67
2022/08/31 02:37:49;;;;;;;14.70;6.07;;;16.10;99.90;;;;;;5052540;28;20173;-68
2022/08/31 02:40:14;;;;;;;15.50;6.67;;;16.00;99.90;;;;;;5052425;28;20223;-67
2022/08/31 02:42:40;;;;;;;16.50;6.57;;;16.00;99.90;;;;;;5052455;28;20219;-67
2022/08/31 02:45:06;;;;;;;13.17;7.17;;;16.00;99.90;;;;;;5052597;28;20177;-68
2022/08/31 02:47:32;;;;;;;13.87;6.60;;;16.00;99.90;;;;;;5052421;28;20186;-67
2022/08/31 02:50:01;;;;;;;19.70;6.83;;;16.00;99.90;;;;;;5052141;28;20459;-67
2022/08/31 02:52:27;;;;;;;10.73;6.40;;;16.10;99.90;;;;;;5051795;28;20190;-67
2022/08/31 02:54:52;;;;;;;13.83;6.80;;;16.10;99.90;;;;;;5052350;28;20463;-67
2022/08/31 02:57:18;;;;;;;13.30;7.27;;;16.10;99.90;;;;;;5052319;28;20268;-68
2022/08/31 02:59:43;;;;;;;15.40;7.30;;;16.10;99.90;;;;;;5052028;28;20680;-67
2022/08/31 03:02:09;;;;;;;14.17;6.80;;;16.20;99.90;;;;;;5051735;28;20204;-68
2022/08/31 03:04:34;;;;;;;10.70;6.53;;;16.20;99.90;;;;;;5051731;28;20219;-67
2022/08/31 03:07:00;;;;;;;11.33;6.33;;;16.10;99.90;;;;;;5052231;28;20174;-67
2022/08/31 03:09:26;;;;;;;13.07;6.20;;;16.10;99.90;;;;;;5051964;28;20478;-67
2022/08/31 03:11:52;;;;;;;12.20;7.30;;;16.10;99.90;;;;;;5051734;28;20189;-67
2022/08/31 03:14:17;;;;;;;11.63;5.80;;;16.10;99.90;;;;;;5051841;28;20178;-67
2022/08/31 03:16:44;;;;;;;12.97;6.40;;;16.10;99.90;;;;;;5051998;28;20247;-67
2022/08/31 03:19:10;;;;;;;11.20;6.03;;;16.10;99.90;;;;;;5051698;28;20174;-67
2022/08/31 03:21:35;;;;;;;11.70;5.57;;;16.10;99.90;;;;;;5051221;28;20519;-67
2022/08/31 03:24:01;;;;;;;19.03;4.67;;;16.10;99.90;;;;;;5051548;28;20190;-67
2022/08/31 03:26:27;;;;;;;13.00;6.43;;;16.10;99.90;;;;;;5051956;28;20178;-67
2022/08/31 03:28:54;;;;;;;17.17;6.60;;;16.10;99.90;;;;;;5051472;28;20256;-67
2022/08/31 03:31:21;;;;;;;13.83;7.50;;;16.10;99.90;;;;;;5051136;28;20201;-67
2022/08/31 03:33:47;;;;;;;11.77;5.17;;;16.10;99.90;;;;;;5050708;28;20435;-67
2022/08/31 03:36:14;;;;;;;16.70;6.20;;;16.20;99.90;;;;;;5052090;28;20500;-67
2022/08/31 03:38:40;;;;;;;17.27;6.77;;;16.10;99.90;;;;;;5051729;28;20408;-67
2022/08/31 03:41:06;;;;;;;12.63;6.97;;;16.10;99.90;;;;;;5052273;28;20753;-68
2022/08/31 03:43:32;;;;;;;8.10;5.43;;;16.10;99.90;;;;;;5055513;28;20420;-67
2022/08/31 03:45:57;;;;;;;18.50;5.50;;;16.00;99.90;;;;;;5055517;28;20623;-67
2022/08/31 03:48:23;;;;;;;10.27;5.13;;;16.00;99.90;;;;;;5055476;28;20178;-67
2022/08/31 03:50:49;;;;;;;11.07;5.80;;;16.00;99.90;;;;;;5055201;28;20229;-67
2022/08/31 03:53:15;;;;;;;8.97;5.23;;;15.90;99.90;;;;;;5054755;28;20180;-67
2022/08/31 03:55:41;;;;;;;14.80;7.00;;;15.90;99.90;;;;;;5055156;28;20181;-67
2022/08/31 03:58:08;;;;;;;11.27;5.63;;;15.90;99.90;;;;;;5015656;28;20426;-67
2022/08/31 04:00:34;;;;;;;11.30;4.43;;;15.90;99.90;;;;;;5015689;28;20884;-67
2022/08/31 04:03:00;;;;;;;14.27;5.37;;;15.80;99.90;;;;;;5015385;28;20417;-66
2022/08/31 04:05:31;;;;;;;10.03;4.80;;;15.80;99.90;;;;;;5015448;28;20734;-66
2022/08/31 04:07:57;;;;;;;9.67;4.83;;;15.80;99.90;;;;;;5015769;28;20186;-66
2022/08/31 04:10:23;;;;;;;8.60;5.27;;;15.70;99.90;;;;;;5016033;28;20453;-66
2022/08/31 04:12:49;;;;;;;13.53;5.90;;;15.60;99.90;;;;;;5016228;28;20182;-66
2022/08/31 04:15:15;;;;;;;8.90;3.90;;;15.60;99.90;;;;;;5016101;28;20184;-67
2022/08/31 04:17:43;;;;;;;12.10;5.40;;;15.60;99.90;;;;;;5016603;28;20414;-66
2022/08/31 04:20:09;;;;;;;9.50;4.93;;;15.60;99.90;;;;;;5017712;28;20414;-66
2022/08/31 04:22:34;;;;;;;9.93;5.30;;;15.60;99.90;;;;;;5016811;28;20426;-66
2022/08/31 04:25:00;;;;;;;11.27;5.17;;;15.60;99.90;;;;;;5016776;28;20177;-65
2022/08/31 04:27:26;;;;;;;10.10;4.20;;;15.60;99.90;;;;;;5025868;28;20179;-65
2022/08/31 04:29:51;;;;;;;7.00;4.23;;;15.50;99.90;;;;;;5032506;28;20625;-65
2022/08/31 04:32:18;;;;;;;20.30;5.10;;;15.50;99.90;;;;;;5032989;28;20259;-65
2022/08/31 04:34:44;;;;;;;8.70;5.37;;;15.50;99.90;;;;;;5032507;28;20605;-65
2022/08/31 04:37:13;;;;;;;10.27;4.87;;;15.60;99.90;;;;;;5031470;28;20429;-64
2022/08/31 04:39:39;;;;;;;6.90;4.73;;;15.60;99.90;;;;;;5030886;28;20185;-65
2022/08/31 04:42:05;;;;;;;7.53;5.33;;;15.50;99.90;;;;;;5031104;28;20414;-65
2022/08/31 04:44:31;;;;;;;7.63;5.00;;;15.50;99.90;;;;;;5016224;28;20402;-66
2022/08/31 04:46:57;;;;;;;11.50;5.30;;;15.60;99.90;;;;;;5016177;28;20175;-66
2022/08/31 04:49:23;;;;;;;7.97;4.73;;;15.50;99.90;;;;;;5026990;28;20412;-66
2022/08/31 04:51:48;;;;;;;12.90;6.60;;;15.60;99.90;;;;;;5054372;28;20185;-66
2022/08/31 04:54:14;;;;;;;11.17;5.67;;;15.60;99.90;;;;;;5053534;28;20174;-66
2022/08/31 04:56:43;;;;;;;8.47;5.00;;;15.60;99.90;;;;;;5053916;28;20176;-65
2022/08/31 04:59:15;;;;;;;7.97;4.90;;;15.60;99.90;;;;;;5053990;28;20178;-66
2022/08/31 05:01:46;;;;;;;25.83;5.57;;;15.60;99.90;;;;;;5053960;28;20424;-66
2022/08/31 05:04:13;;;;;;;16.20;6.23;;;15.50;99.90;;;;;;5054194;28;20972;-66
2022/08/31 05:06:41;;;;;;;8.50;5.20;;;15.60;99.90;;;;;;5054051;28;20893;-66
2022/08/31 05:09:14;;;;;;;10.70;5.30;;;15.60;99.90;;;;;;5053541;28;20441;-66
2022/08/31 05:11:40;;;;;;;10.13;4.20;;;15.60;99.90;;;;;;5053100;28;20460;-66
2022/08/31 05:14:07;;;;;;;8.33;4.37;;;15.60;99.90;;;;;;5053692;28;20420;-66
2022/08/31 05:16:33;;;;;;;9.13;4.33;;;15.60;99.90;;;;;;5053592;28;20865;-66
2022/08/31 05:19:00;;;;;;;10.17;4.80;;;15.60;99.90;;;;;;5053503;28;20452;-66
2022/08/31 05:21:28;;;;;;;10.07;5.17;;;15.60;99.90;;;;;;5052935;28;20473;-66
2022/08/31 05:23:56;;;;;;;9.53;4.87;;;15.60;99.90;;;;;;5053292;28;20940;-67
2022/08/31 05:26:29;;;;;;;8.13;4.33;;;15.60;99.90;;;;;;5053456;28;20416;-66
2022/08/31 05:28:56;;;;;;;7.73;4.00;;;15.50;99.90;;;;;;5053442;28;20878;-65
2022/08/31 05:31:22;;;;;;;6.83;4.57;;;15.40;99.90;;;;;;5052598;28;20459;-65
2022/08/31 05:33:49;;;;;;;8.43;4.27;;;15.40;99.90;;;;;;5052509;28;20791;-65
2022/08/31 05:36:15;;;;;;;5.73;3.70;;;15.40;99.90;;;;;;5053050;28;20979;-65
2022/08/31 05:38:41;;;;;;;6.33;3.70;;;15.40;99.90;;;;;;5053434;28;20415;-65
2022/08/31 05:41:08;;;;;;;7.50;4.23;;;15.40;99.90;;;;;;5052645;28;20420;-65
2022/08/31 05:43:35;;;;;;;10.43;4.87;;;15.40;99.90;;;;;;5053285;28;20451;-65
2022/08/31 05:46:00;;;;;;;10.83;5.60;;;15.40;99.90;;;;;;5053058;28;20420;-65
2022/08/31 05:48:32;;;;;;;9.70;4.20;;;15.40;99.90;;;;;;5052944;28;20420;-65
2022/08/31 05:51:00;;;;;;;7.07;4.07;;;15.40;99.90;;;;;;5052661;28;20208;-66
2022/08/31 05:53:26;;;;;;;12.83;5.90;;;15.30;99.90;;;;;;5053120;28;20940;-65
2022/08/31 05:55:58;;;;;;;12.73;4.57;;;15.30;99.90;;;;;;5052878;28;20577;-66
2022/08/31 05:58:23;;;;;;;12.00;5.47;;;15.30;99.90;;;;;;5053146;28;20205;-65
2022/08/31 06:00:49;;;;;;;6.87;3.50;;;15.20;99.90;;;;;;5052730;28;20460;-65
2022/08/31 06:03:14;;;;;;;6.97;4.77;;;15.20;99.90;;;;;;5052472;28;20188;-65
2022/08/31 06:05:41;;;;;;;7.27;4.00;;;15.30;99.90;;;;;;5052831;28;20716;-65
2022/08/31 06:08:07;;;;;;;7.27;3.90;;;15.20;99.90;;;;;;5052966;28;20416;-65
2022/08/31 06:10:33;;;;;;;8.50;4.93;;;15.20;99.90;;;;;;5052563;28;20201;-65
2022/08/31 06:13:00;;;;;;;8.67;4.47;;;15.20;99.90;;;;;;5052502;28;20178;-65
2022/08/31 06:15:26;;;;;;;9.87;4.20;;;15.30;99.90;;;;;;5052591;28;20412;-65
2022/08/31 06:17:53;;;;;;;7.70;4.70;;;15.30;99.90;;;;;;5052678;28;20899;-65
2022/08/31 06:20:19;;;;;;;12.10;5.20;;;15.30;99.90;;;;;;5052645;28;20173;-65
2022/08/31 06:22:45;;;;;;;7.27;4.40;;;15.30;99.90;;;;;;5052101;28;20424;-65
2022/08/31 06:25:16;;;;;;;14.13;4.60;;;15.40;99.90;;;;;;5052359;28;20189;-65
2022/08/31 06:27:42;;;;;;;7.53;4.23;;;15.40;99.90;;;;;;5052350;28;20469;-65
2022/08/31 06:30:09;;;;;;;9.23;4.57;;;15.40;99.90;;;;;;5052100;28;20543;-66
2022/08/31 06:32:34;;;;;;;26.17;5.70;;;15.30;99.90;;;;;;5050939;28;20916;-65
2022/08/31 06:35:00;;;;;;;11.97;5.60;;;15.30;99.90;;;;;;5052295;28;20427;-66
2022/08/31 06:37:26;;;;;;;15.53;5.90;;;15.40;99.90;;;;;;5052246;28;20170;-66
2022/08/31 06:39:52;;;;;;;14.80;5.07;;;15.40;99.90;;;;;;5052214;28;20585;-65
2022/08/31 06:42:18;;;;;;;11.73;6.17;;;15.40;99.90;;;;;;5051216;28;20280;-67
2022/08/31 06:44:44;;;;;;;11.20;6.00;;;15.40;99.90;;;;;;5052035;28;20503;-67
2022/08/31 06:47:10;;;;;;;15.40;6.10;;;15.40;99.90;;;;;;5051912;28;20635;-65
2022/08/31 06:49:35;;;;;;;11.17;5.37;;;15.40;99.90;;;;;;5051813;28;20548;-65
2022/08/31 06:52:02;;;;;;;13.60;6.00;;;15.40;99.90;;;;;;5051341;28;20174;-65
2022/08/31 06:54:27;;;;;;;7.93;4.30;;;15.50;99.90;;;;;;5051837;28;20637;-67
2022/08/31 06:56:55;;;;;;;8.57;4.83;;;15.40;99.90;;;;;;5051593;28;20416;-66
2022/08/31 06:59:20;;;;;;;9.10;5.30;;;15.40;99.90;;;;;;5051983;28;20259;-66
2022/08/31 07:01:46;;;;;;;7.77;5.00;;;15.40;99.90;;;;;;5051315;28;20444;-66
2022/08/31 07:04:13;;;;;;;9.17;4.93;;;15.50;99.90;;;;;;5051846;28;20255;-65
2022/08/31 07:06:43;;;;;;;11.03;5.80;;;15.50;99.90;;;;;;5052001;28;20421;-66
2022/08/31 07:09:14;;;;;;;13.60;4.73;;;15.50;99.90;;;;;;5051829;28;20412;-66
2022/08/31 07:11:43;;;;;;;8.67;3.77;;;15.50;99.90;;;;;;5051086;28;20456;-66
2022/08/31 07:14:13;;;;;;;9.50;4.90;;;15.50;99.90;;;;;;5051938;28;20419;-66
2022/08/31 07:16:39;;;;;;;8.23;4.40;;;15.50;99.90;;;;;;5055532;28;20420;-66
2022/08/31 07:19:05;;;;;;;8.33;4.07;;;15.40;99.90;;;;;;5058388;28;20408;-65
2022/08/31 07:21:39;;;;;;;6.27;3.47;;;15.50;99.90;;;;;;5057916;28;20792;-65
2022/08/31 07:24:06;;;;;;;9.00;4.67;;;15.40;99.90;;;;;;5058268;28;20424;-65
2022/08/31 07:26:35;;;;;;;5.90;3.73;;;15.40;99.90;;;;;;5058157;28;20458;-66
2022/08/31 07:29:03;;;;;;;7.90;4.50;;;15.40;99.90;;;;;;5058532;28;20870;-66
2022/08/31 07:31:49;;;;;;;11.13;5.53;;;15.40;99.90;;;;;;5058055;28;20467;-65
2022/08/31 07:34:26;;;;;;;10.23;5.10;;;15.50;99.90;;;;;;5058374;28;20428;-66
2022/08/31 07:42:27;;;;;;;10.80;5.33;;;15.50;99.90;;;;;;5057802;28;20848;-66
2022/08/31 07:44:54;;;;;;;9.13;5.13;;;15.50;99.90;;;;;;5058204;28;20408;-65
2022/08/31 07:47:24;;;;;;;10.33;4.97;;;15.60;99.90;;;;;;5058124;28;20415;-65
2022/08/31 07:49:51;;;;;;;8.00;5.33;;;15.60;99.90;;;;;;5058035;28;20526;-66
2022/08/31 07:52:22;;;;;;;10.80;5.70;;;15.70;99.90;;;;;;5057674;28;20411;-66
2022/08/31 07:54:54;;;;;;;14.30;6.30;;;15.70;99.90;;;;;;5058016;28;20495;-66
2022/08/31 07:57:24;;;;;;;9.70;5.87;;;15.70;99.90;;;;;;5057780;28;20507;-65
2022/08/31 07:59:55;;;;;;;11.53;6.20;;;15.80;99.90;;;;;;5057948;28;20408;-66
2022/08/31 08:02:22;;;;;;;14.90;6.67;;;15.90;99.90;;;;;;5057533;28;20465;-66
2022/08/31 08:04:49;;;;;;;10.87;6.17;;;15.90;99.90;;;;;;5057767;28;20422;-66
2022/08/31 08:07:16;;;;;;;11.30;5.23;;;15.90;99.90;;;;;;5057927;28;20477;-66
2022/08/31 08:09:42;;;;;;;7.80;5.10;;;15.80;99.90;;;;;;5057680;28;20446;-65
2022/08/31 08:12:08;;;;;;;11.33;5.10;;;15.80;99.90;;;;;;5057324;28;20416;-66
2022/08/31 08:14:38;;;;;;;8.40;5.43;;;15.80;99.90;;;;;;5057832;28;20196;-65
2022/08/31 08:17:06;;;;;;;15.00;6.73;;;15.80;99.90;;;;;;5057693;28;20880;-66
2022/08/31 08:19:32;;;;;;;11.70;7.00;;;15.90;99.90;;;;;;5057774;28;20933;-66
2022/08/31 08:22:01;;;;;;;14.60;6.63;;;15.90;99.90;;;;;;5057209;28;20408;-66
2022/08/31 08:24:28;;;;;;;12.40;7.27;;;15.90;99.90;;;;;;5057682;28;20416;-65
2022/08/31 08:26:54;;;;;;;12.87;6.33;;;16.00;99.90;;;;;;5056991;28;20420;-65
2022/08/31 08:29:20;;;;;;;12.00;6.10;;;16.10;99.90;;;;;;5053303;28;20545;-66
2022/08/31 08:31:51;;;;;;;14.43;6.50;;;16.10;99.90;;;;;;5053319;28;20463;-66
2022/08/31 08:34:18;;;;;;;13.83;7.30;;;16.20;99.90;;;;;;5054185;28;20174;-66
2022/08/31 08:36:45;;;;;;;13.20;6.83;;;16.30;99.90;;;;;;5054505;28;20892;-66
2022/08/31 08:39:12;;;;;;;15.17;6.30;;;16.30;99.90;;;;;;5054588;28;20431;-65
2022/08/31 08:41:40;;;;;;;18.47;6.43;;;16.30;99.90;;;;;;5053724;28;20435;-66
2022/08/31 08:44:15;;;;;;;10.90;6.00;;;16.30;99.90;;;;;;5054088;28;20427;-66
2022/08/31 08:46:46;;;;;;;10.00;5.83;;;16.40;99.90;;;;;;5053862;28;20427;-65
2022/08/31 08:49:17;;;;;;;19.40;7.30;;;16.40;99.90;;;;;;5053922;28;20438;-66
2022/08/31 08:51:45;;;;;;;10.77;5.83;;;16.50;99.90;;;;;;5053276;28;20459;-66
2022/08/31 08:54:13;;;;;;;10.13;5.90;;;16.50;99.90;;;;;;5054085;28;20415;-65
2022/08/31 08:56:47;;;;;;;14.50;6.87;;;16.50;99.90;;;;;;5054144;28;20416;-65
2022/08/31 08:59:14;;;;;;;7.33;5.63;;;16.50;99.90;;;;;;5054049;28;20519;-65
2022/08/31 09:01:45;;;;;;;10.20;6.47;;;16.60;99.90;;;;;;5053740;28;21114;-65
2022/08/31 09:04:41;;;;;;;10.57;5.33;;;16.70;99.90;;;;;;5054155;28;20515;-65
2022/08/31 09:07:17;;;;;;;9.30;5.77;;;16.80;99.90;;;;;;5053943;28;20444;-65
2022/08/31 09:10:04;;;;;;;9.70;6.10;;;16.90;99.90;;;;;;5053991;28;20416;-65
2022/08/31 09:13:17;;;;;;;10.53;5.53;;;17.00;99.90;;;;;;5053204;28;20404;-65
2022/08/31 09:15:43;;;;;;;18.60;6.70;;;17.20;99.90;;;;;;5050789;28;20579;-64
2022/08/31 09:18:34;;;;;;;12.30;5.50;;;17.30;99.90;;;;;;5052851;28;20416;-64
2022/08/31 09:21:20;;;;;;;10.90;5.73;;;17.20;99.90;;;;;;5052996;28;20188;-64
2022/08/31 09:23:53;;;;;;;11.03;5.50;;;17.10;99.90;;;;;;5052616;28;20408;-65
2022/08/31 09:26:26;;;;;;;15.50;5.23;;;17.10;99.90;;;;;;5053423;28;20503;-65
2022/08/31 09:28:52;;;;;;;11.57;6.23;;;17.00;99.90;;;;;;5053196;28;20408;-64
2022/08/31 09:31:31;;;;;;;12.50;6.50;;;16.90;99.90;;;;;;5052794;28;20474;-66
2022/08/31 09:33:57;;;;;;;9.10;5.57;;;16.80;99.90;;;;;;5052008;28;20432;-66
2022/08/31 09:36:32;;;;;;;11.33;5.60;;;16.80;99.90;;;;;;5053286;28;20421;-65
2022/08/31 09:39:16;;;;;;;9.00;6.00;;;16.80;99.90;;;;;;5052721;28;20197;-65
2022/08/31 09:41:43;;;;;;;9.83;5.60;;;16.70;99.90;;;;;;5051489;28;20442;-65
2022/08/31 09:44:29;;;;;;;13.70;6.20;;;16.70;99.90;;;;;;5053052;28;20408;-64
2022/08/31 09:46:57;;;;;;;11.03;6.47;;;16.50;99.90;;;;;;5053177;28;20757;-65
2022/08/31 09:49:29;;;;;;;13.23;7.50;;;16.50;99.90;;;;;;5052858;28;20477;-65
2022/08/31 09:52:15;;;;;;;13.77;6.50;;;16.50;99.90;;;;;;5052398;28;20426;-65
2022/08/31 09:57:53;;;;;;;12.50;7.17;;;16.50;99.90;;;;;;5052885;28;20985;-65
2022/08/31 10:00:45;;;;;;;12.43;6.30;;;16.60;99.90;;;;;;5052800;28;20435;-65
2022/08/31 10:03:12;;;;;;;12.50;6.47;;;16.60;99.90;;;;;;5051832;28;20438;-65
2022/08/31 10:05:41;;;;;;;13.50;7.33;;;16.60;99.90;;;;;;5052776;28;20895;-66
2022/08/31 10:08:29;;;;;;;15.07;7.73;;;16.60;99.90;;;;;;5052713;28;20403;-65
2022/08/31 10:10:57;;;;;;;15.23;9.00;;;16.60;99.90;;;;;;5052598;28;20464;-65
2022/08/31 10:13:53;;;;;;;16.70;8.50;;;16.60;99.90;;;;;;5052211;28;20423;-65
2022/08/31 10:16:46;;;;;;;16.33;8.70;;;16.60;99.90;;;;;;5052166;28;20961;-65
2022/08/31 10:19:29;;;;;;;13.97;7.53;;;16.60;99.90;;;;;;5052468;28;20864;-65
2022/08/31 10:22:10;;;;;;;15.07;7.20;;;16.60;99.90;;;;;;5051809;28;20427;-65
2022/08/31 10:24:45;;;;;;;14.43;7.30;;;16.60;99.90;;;;;;5052184;28;20530;-65
2022/08/31 10:27:37;;;;;;;17.00;8.80;;;16.60;99.90;;;;;;5052310;28;20416;-65
2022/08/31 10:30:27;;;;;;;12.30;6.83;;;16.60;99.90;;;;;;5052343;28;20539;-65
2022/08/31 10:33:00;;;;;;;14.13;7.13;;;16.60;99.90;;;;;;5050825;28;20436;-66
2022/08/31 10:35:36;;;;;;;13.70;8.33;;;16.70;99.90;;;;;;5052465;28;20448;-65
2022/08/31 10:38:16;;;;;;;15.27;8.10;;;16.70;99.90;;;;;;5052461;28;20738;-66
2022/08/31 10:40:53;;;;;;;18.90;8.17;;;16.80;99.90;;;;;;5052492;28;20408;-66
2022/08/31 10:43:28;;;;;;;13.20;6.77;;;16.80;99.90;;;;;;5051866;28;20420;-65
2022/08/31 10:45:56;;;;;;;14.87;8.50;;;16.90;99.90;;;;;;5052502;28;20960;-66
2022/08/31 10:48:25;;;;;;;12.90;7.90;;;17.00;99.90;;;;;;5052385;28;20423;-65
2022/08/31 10:50:53;;;;;;;11.93;7.30;;;17.00;99.90;;;;;;5051466;28;20474;-66
2022/08/31 10:53:39;;;;;;;12.10;7.73;;;17.00;99.90;;;;;;5051597;28;20431;-66
2022/08/31 10:56:35;;;;;;;14.23;7.27;;;17.00;99.90;;;;;;5051791;28;20419;-66
2022/08/31 10:59:33;;;;;;;13.57;7.77;;;17.00;99.90;;;;;;5051544;28;20397;-66
2022/08/31 11:01:58;;;;;;;17.53;8.87;;;17.00;99.90;;;;;;5051125;28;20412;-65
2022/08/31 11:04:42;;;;;;;15.30;9.17;;;17.20;99.90;;;;;;5051158;28;20431;-66
2022/08/31 11:07:23;;;;;;;12.63;6.40;;;17.20;99.90;;;;;;5051270;28;20177;-66
2022/08/31 11:10:24;;;;;;;13.93;7.10;;;17.20;99.90;;;;;;5051320;28;20492;-65
2022/08/31 11:12:56;;;;;;;13.37;7.90;;;17.20;99.90;;;;;;5050892;28;20415;-66
2022/08/31 11:15:40;;;;;;;23.03;8.60;;;17.30;99.90;;;;;;5051414;28;20408;-65
2022/08/31 11:18:24;;;;;;;14.00;7.33;;;17.40;99.90;;;;;;5051568;28;20434;-65
2022/08/31 11:21:18;;;;;;;14.00;7.20;;;17.50;99.90;;;;;;5051377;28;20469;-66
2022/08/31 11:24:05;;;;;;;13.80;7.90;;;17.60;99.90;;;;;;5051318;28;21206;-66
2022/08/31 11:26:37;;;;;;;16.03;7.73;;;17.60;99.90;;;;;;5051520;28;20404;-65
2022/08/31 11:29:25;;;;;;;15.53;7.53;;;17.70;99.90;;;;;;5051295;28;20415;-65
2022/08/31 11:31:53;;;;;;;14.17;8.47;;;17.80;99.90;;;;;;5049562;28;20498;-65
2022/08/31 11:34:27;;;;;;;16.33;9.17;;;17.80;99.90;;;;;;5051144;28;20507;-65
2022/08/31 11:36:59;;;;;;;11.40;7.60;;;17.90;99.90;;;;;;5051112;28;20408;-65
2022/08/31 11:39:34;;;;;;;19.67;8.20;;;18.00;99.90;;;;;;5051315;28;20467;-64
2022/08/31 11:42:17;;;;;;;21.07;7.60;;;18.10;99.90;;;;;;5050885;28;20915;-65
2022/08/31 11:44:45;;;;;;;10.03;6.07;;;18.30;99.90;;;;;;5051484;28;20499;-65
2022/08/31 11:47:29;;;;;;;15.93;8.30;;;18.40;99.90;;;;;;5051402;28;20465;-64
2022/08/31 11:50:08;;;;;;;15.77;8.50;;;18.30;99.90;;;;;;5051578;28;20463;-64
2022/08/31 11:52:35;;;;;;;21.33;6.80;;;18.30;99.90;;;;;;5051449;28;20410;-64
2022/08/31 11:55:27;;;;;;;17.23;8.63;;;18.10;99.90;;;;;;5051711;28;20409;-65
2022/08/31 11:58:05;;;;;;;11.00;6.53;;;18.10;99.90;;;;;;5051819;28;20420;-65
2022/08/31 12:00:57;;;;;;;20.50;7.33;;;18.10;99.90;;;;;;5051745;28;20408;-65
2022/08/31 12:03:51;;;;;;;11.90;6.23;;;18.10;99.90;;;;;;5054596;28;20408;-65
2022/08/31 12:06:30;;;;;;;12.17;7.77;;;18.10;99.90;;;;;;5055801;28;20481;-65
2022/08/31 12:09:17;;;;;;;11.70;7.47;;;18.10;99.90;;;;;;5056315;28;20408;-66
2022/08/31 12:11:58;;;;;;;8.27;5.77;;;18.30;99.90;;;;;;5055380;28;20455;-65
2022/08/31 12:14:36;;;;;;;12.30;6.27;;;18.30;99.90;;;;;;5055614;28;21174;-66
2022/08/31 12:17:21;;;;;;;12.50;7.07;;;18.60;99.90;;;;;;5055856;28;20418;-65
2022/08/31 12:20:14;;;;;;;12.10;5.87;;;19.20;99.90;;;;;;5055382;28;20491;-65
2022/08/31 12:26:07;;;;;;;13.20;6.20;;;19.50;99.90;;;;;;5055370;28;20384;-66
2022/08/31 12:28:57;;;;;;;11.43;6.20;;;19.20;99.90;;;;;;5055311;28;20926;-66
2022/08/31 12:31:23;;;;;;;16.43;6.50;;;19.20;99.90;;;;;;5054547;28;20470;-66
2022/08/31 12:34:02;;;;;;;18.60;7.07;;;19.20;99.90;;;;;;5053754;28;20436;-65
2022/08/31 12:36:31;;;;;;;11.63;6.30;;;19.20;99.90;;;;;;5054789;28;20618;-65
2022/08/31 12:39:10;;;;;;;13.13;6.53;;;19.30;99.90;;;;;;5054620;28;20444;-66
2022/08/31 12:41:44;;;;;;;9.53;5.70;;;19.20;99.90;;;;;;5054238;28;20420;-66
2022/08/31 12:44:10;;;;;;;8.13;5.70;;;19.40;99.90;;;;;;5054752;28;20745;-66
2022/08/31 12:46:39;;;;;;;11.53;6.10;;;19.40;99.90;;;;;;5054527;28;20416;-66
2022/08/31 12:49:39;;;;;;;14.63;6.67;;;19.40;99.90;;;;;;5054329;28;20197;-65
2022/08/31 12:52:26;;;;;;;15.13;6.63;;;19.40;99.90;;;;;;5053996;28;20900;-65
2022/08/31 12:55:08;;;;;;;15.10;6.00;;;19.40;99.90;;;;;;5054333;28;20474;-66
2022/08/31 12:57:49;;;;;;;18.40;6.50;;;19.40;99.90;;;;;;5054457;28;21150;-66
2022/08/31 13:00:20;;;;;;;10.97;6.30;;;19.40;99.90;;;;;;5054212;28;20484;-66
2022/08/31 13:02:50;;;;;;;9.00;5.50;;;19.60;99.90;;;;;;5053420;28;20423;-66
2022/08/31 13:05:19;;;;;;;11.57;5.27;;;19.60;99.90;;;;;;5053882;28;20408;-66
2022/08/31 13:07:45;;;;;;;14.27;6.50;;;19.60;99.90;;;;;;5054171;28;20431;-66
2022/08/31 13:10:15;;;;;;;13.83;5.73;;;19.70;99.90;;;;;;5053989;28;20776;-66
2022/08/31 13:12:51;;;;;;;12.13;5.93;;;19.70;99.90;;;;;;5053845;28;20180;-67
2022/08/31 13:15:27;;;;;;;10.60;4.80;;;19.90;99.90;;;;;;5053406;28;20412;-67